Atmore, AL (36503)

3:39 PM CDT on July 24, 2016 (GMT -0500)
Nokomis | | Change Station

Elev 269 ft 31.03 °N, 87.59 °W | Updated 11 seconds ago

Overcast
Overcast
86.5 °F
Feels Like 97 °F
N
5.1
Wind Variable Wind from SE
Gusts 7.4 mph

Today
High -- | Low -- °F
--% Chance of Precip.
Yesterday
High -- | Low -- °F
Precip. -- in
Pressure 29.95 in
Visibility 10.0 miles
Clouds Clear
Heat Index 97 °F
Dew Point 76 °F
Humidity 71%
Rainfall 0.00 in
Snow Depth Not available.
6:02 AM 7:50 PM
Waning Gibbous, 73% visible
METAR KNDZ 241956Z AUTO 30003KT 10SM TS CLR 28/27 A2999 RMK AO2 RAE23 TSE20 SLP140 P0000 T02830267 $
Pressure 29.95 in
Visibility 10.0 miles
Clouds Clear
Heat Index 97 °F
Dew Point 76 °F
Humidity 71%
Rainfall 0.00 in
Snow Depth Not available.
6:02 AM 7:50 PM
Waning Gibbous, 73% visible
METAR KNDZ 241956Z AUTO 30003KT 10SM TS CLR 28/27 A2999 RMK AO2 RAE23 TSE20 SLP140 P0000 T02830267 $

10-Day Weather Forecast

Almanac

Astronomy

Jul. 24, 2016 Rise Set
Actual Time
Civil Twilight
Nautical Twilight
Astronomical Twilight
Moon
Length of Visible Light
Length of Day
Tomorrow will be .
, % of the Moon is Illuminated

Today's Extremes

State Highs State Lows

Community

WunderPhotos

Upload Photos

1,927,189 photos uploaded!

WunderBlog® & News

Nearby

Air Quality

  Air Quality AQ Index Pollutant
Not available.

Snow Depth

Station Depth Elevation

Earthquake Activity

City Distance Mag. Time & Date
Minimum magnitude displayed is 2.5.

Coastal Water Temperatures

Place Temperature

Stations

Nearby Weather Stations

Station Location Temp. Windchill Dew Point Humidity Wind Precip. Elev Updated Type
                   

Watches & Warnings

There are currently no watches in effect.